sensor_id;sensor_type;location;lat;lon;timestamp;pressure;altitude;pressure_sealevel;temperature;humidity
70521;BME280;58442;52.716;23.560;2022-09-09T00:05:34;101584.01;;;11.92;58.21
70521;BME280;58442;52.716;23.560;2022-09-09T00:09:58;101578.11;;;11.90;58.20
70521;BME280;58442;52.716;23.560;2022-09-09T00:16:39;101581.52;;;11.87;58.26
70521;BME280;58442;52.716;23.560;2022-09-09T00:20:59;101583.30;;;11.83;58.35
70521;BME280;58442;52.716;23.560;2022-09-09T00:23:14;101591.81;;;11.82;58.32
70521;BME280;58442;52.716;23.560;2022-09-09T00:29:53;101591.98;;;11.76;58.37
70521;BME280;58442;52.716;23.560;2022-09-09T00:32:12;101591.53;;;11.74;58.42
70521;BME280;58442;52.716;23.560;2022-09-09T00:34:25;101593.45;;;11.74;58.46
70521;BME280;58442;52.716;23.560;2022-09-09T00:36:30;101581.63;;;11.70;58.52
70521;BME280;58442;52.716;23.560;2022-09-09T00:38:38;101580.84;;;11.69;58.58
70521;BME280;58442;52.716;23.560;2022-09-09T00:40:53;101582.77;;;11.69;58.60
70521;BME280;58442;52.716;23.560;2022-09-09T00:47:34;101577.85;;;11.62;58.70
70521;BME280;58442;52.716;23.560;2022-09-09T00:55:17;101564.44;;;11.57;58.82
70521;BME280;58442;52.716;23.560;2022-09-09T00:59:22;101571.36;;;11.55;58.94
70521;BME280;58442;52.716;23.560;2022-09-09T01:01:30;101570.88;;;11.53;58.97
70521;BME280;58442;52.716;23.560;2022-09-09T01:07:55;101560.46;;;11.55;58.98
70521;BME280;58442;52.716;23.560;2022-09-09T01:10:00;101567.50;;;11.56;58.93
70521;BME280;58442;52.716;23.560;2022-09-09T01:12:18;101563.52;;;11.53;58.97
70521;BME280;58442;52.716;23.560;2022-09-09T01:14:38;101570.88;;;11.53;58.97
70521;BME280;58442;52.716;23.560;2022-09-09T01:16:53;101565.42;;;11.53;58.96
70521;BME280;58442;52.716;23.560;2022-09-09T01:18:56;101558.88;;;11.54;58.98
70521;BME280;58442;52.716;23.560;2022-09-09T01:21:25;101554.54;;;11.53;58.97
70521;BME280;58442;52.716;23.560;2022-09-09T01:27:37;101557.26;;;11.53;59.00
70521;BME280;58442;52.716;23.560;2022-09-09T01:29:47;101556.46;;;11.52;59.05
70521;BME280;58442;52.716;23.560;2022-09-09T01:31:56;101544.33;;;11.49;59.11
70521;BME280;58442;52.716;23.560;2022-09-09T01:33:57;101543.54;;;11.49;59.13
70521;BME280;58442;52.716;23.560;2022-09-09T01:36:06;101537.30;;;11.48;59.16
70521;BME280;58442;52.716;23.560;2022-09-09T01:38:09;101540.80;;;11.49;59.15
70521;BME280;58442;52.716;23.560;2022-09-09T01:40:10;101535.82;;;11.51;59.12
70521;BME280;58442;52.716;23.560;2022-09-09T01:42:14;101533.89;;;11.51;59.12
70521;BME280;58442;52.716;23.560;2022-09-09T01:44:17;101531.51;;;11.50;59.15
70521;BME280;58442;52.716;23.560;2022-09-09T01:46:21;101532.98;;;11.47;59.20
70521;BME280;58442;52.716;23.560;2022-09-09T01:48:24;101543.88;;;11.47;59.26
70521;BME280;58442;52.716;23.560;2022-09-09T01:50:26;101545.80;;;11.47;59.28
70521;BME280;58442;52.716;23.560;2022-09-09T01:52:27;101535.23;;;11.45;59.27
70521;BME280;58442;52.716;23.560;2022-09-09T01:54:33;101539.87;;;11.45;59.28
70521;BME280;58442;52.716;23.560;2022-09-09T02:01:21;101536.36;;;11.44;59.27
70521;BME280;58442;52.716;23.560;2022-09-09T02:03:25;101539.87;;;11.45;59.26
70521;BME280;58442;52.716;23.560;2022-09-09T02:05:39;101528.18;;;11.44;59.22
70521;BME280;58442;52.716;23.560;2022-09-09T02:07:43;101528.98;;;11.45;59.22
70521;BME280;58442;52.716;23.560;2022-09-09T02:09:50;101531.24;;;11.43;59.28
70521;BME280;58442;52.716;23.560;2022-09-09T02:14:12;101527.27;;;11.40;59.39
70521;BME280;58442;52.716;23.560;2022-09-09T02:16:27;101522.63;;;11.41;59.45
70521;BME280;58442;52.716;23.560;2022-09-09T02:19:20;101528.07;;;11.41;59.47
70521;BME280;58442;52.716;23.560;2022-09-09T02:20:41;101522.98;;;11.39;59.47
70521;BME280;58442;52.716;23.560;2022-09-09T16:03:02;101697.09;;;12.52;75.12
